Main page
METAR-TAF:

METAR-TAF

Airports :

Faro Airport

Faro, Portugal

latitude: 37-01N, longitude: 007-58W, elevation: 7 m

Current weather observation

The report was made 30 minutes ago, at 20:30 UTC
Wind 6 kt from the North/Northeast
Temperature 10°C
Humidity 71%
Pressure 1022 hPa
Visibility 10 km or more
no clouds below 1500 m and no cumulonimbus

METAR: LPFR 212030Z 03006KT CAVOK 10/05 Q1022

Time: 21:00 (21:00 UTC)

Forecast

The report was made 4 hours and 0 minutes ago, at 17:00 UTC
Forecast valid from 21 at 18 UTC to 22 at 18 UTC
Wind 10 kt from the East/Southeast
Visibility 10 km or more
no clouds below 1500 m and no cumulonimbus
Becoming
from 21 at 18 UTC to 21 at 21 UTC
Wind 8 kt from the North/Northeast
Becoming
from 22 at 06 UTC to 22 at 09 UTC
Wind 15 kt from the East

TAF: LPFR 211700Z 2118/2218 11010KT CAVOK BECMG 2118/2121 03008KT BECMG 2206/2209 08015KT

Weather observations and forecasts of more than 4000 airports (METAR and TAF reports).

The available stations are represented by yellow and red dots on the map.

Hover mouse over dot to see the name of the station.

Then click to see weather observations and forecasts.

To change the map : click on the green buttons with a black cross to zoom in, on the green button with a dash to zoom out, or on the green arrows for adjacent maps.


METAR-TAF: